createdAt,value
2019-02-24T00:00:53.758Z,926.38
2019-02-24T00:01:53.784Z,926.32
2019-02-24T00:02:53.796Z,926.33
2019-02-24T00:03:54.716Z,926.31
2019-02-24T00:04:53.906Z,926.29
2019-02-24T00:05:53.945Z,926.24
2019-02-24T00:06:53.988Z,926.29
2019-02-24T00:07:54.059Z,926.28
2019-02-24T00:08:54.091Z,926.28
2019-02-24T00:09:54.148Z,926.26
2019-02-24T00:10:54.191Z,926.21
2019-02-24T00:11:54.245Z,926.22
2019-02-24T00:12:54.286Z,926.25
2019-02-24T00:13:54.339Z,926.25
2019-02-24T00:14:54.376Z,926.21
2019-02-24T00:15:54.415Z,926.24
2019-02-24T00:16:54.473Z,926.23
2019-02-24T00:17:54.516Z,926.18
2019-02-24T00:18:54.549Z,926.19
2019-02-24T00:19:54.625Z,926.18
2019-02-24T00:20:54.662Z,926.24
2019-02-24T00:21:54.699Z,926.21
2019-02-24T00:22:54.748Z,926.24
2019-02-24T00:23:54.789Z,926.28
2019-02-24T00:24:54.858Z,926.31
2019-02-24T00:25:54.883Z,926.28
2019-02-24T00:26:54.947Z,926.33
2019-02-24T00:27:54.999Z,926.31
2019-02-24T00:28:55.025Z,926.31
2019-02-24T00:29:55.096Z,926.37
2019-02-24T00:30:55.115Z,926.42
2019-02-24T00:31:55.173Z,926.44
2019-02-24T00:32:55.260Z,926.43
2019-02-24T00:33:55.270Z,926.41
2019-02-24T00:34:55.334Z,926.43
2019-02-24T00:35:55.365Z,926.42
2019-02-24T00:36:55.417Z,926.39
2019-02-24T00:37:55.449Z,926.37
2019-02-24T00:38:55.509Z,926.34
2019-02-24T00:39:55.529Z,926.33
2019-02-24T00:40:55.580Z,926.31
2019-02-24T00:41:55.650Z,926.30
2019-02-24T00:42:55.683Z,926.20
2019-02-24T00:43:55.782Z,926.21
2019-02-24T00:44:55.787Z,926.14
2019-02-24T00:45:55.844Z,926.12
2019-02-24T00:46:55.900Z,926.12
2019-02-24T00:47:55.922Z,926.09
2019-02-24T00:48:55.970Z,926.10
2019-02-24T00:49:56.016Z,926.09
2019-02-24T00:50:56.084Z,926.08
2019-02-24T00:51:56.123Z,926.04
2019-02-24T00:52:56.164Z,926.05
2019-02-24T00:53:56.211Z,926.00
2019-02-24T00:54:56.245Z,926.00
2019-02-24T00:55:56.302Z,925.94
2019-02-24T00:56:56.367Z,925.85
2019-02-24T00:57:56.391Z,925.87
2019-02-24T00:58:56.424Z,925.85
2019-02-24T00:59:56.487Z,925.87
2019-02-24T01:00:56.545Z,925.88
2019-02-24T01:01:56.594Z,925.93
2019-02-24T01:02:56.632Z,926.00
2019-02-24T01:03:56.713Z,925.98
2019-02-24T01:04:56.720Z,926.01
2019-02-24T01:05:56.781Z,926.07
2019-02-24T01:06:56.827Z,926.04
2019-02-24T01:07:56.866Z,926.05
2019-02-24T01:08:56.913Z,926.10
2019-02-24T01:09:56.978Z,926.11
2019-02-24T01:10:57.051Z,926.13
2019-02-24T01:11:57.063Z,926.16
2019-02-24T01:12:57.117Z,926.13
2019-02-24T01:13:57.147Z,926.07
2019-02-24T01:14:57.208Z,926.11
2019-02-24T01:15:57.249Z,926.06
2019-02-24T01:16:57.267Z,926.06
2019-02-24T01:17:57.322Z,926.03
2019-02-24T01:18:57.403Z,926.02
2019-02-24T01:19:57.443Z,926.02
2019-02-24T01:20:57.484Z,926.04
2019-02-24T01:21:57.577Z,926.03
2019-02-24T01:22:57.616Z,926.04
2019-02-24T01:23:57.624Z,926.13
2019-02-24T01:24:57.675Z,926.14
2019-02-24T01:25:57.713Z,926.18
2019-02-24T01:26:57.780Z,926.22
2019-02-24T01:27:57.804Z,926.28
2019-02-24T01:28:57.860Z,926.31
2019-02-24T01:29:57.884Z,926.32
2019-02-24T01:30:57.991Z,926.31
2019-02-24T01:31:57.976Z,926.27
2019-02-24T01:32:58.046Z,926.26
2019-02-24T01:33:58.110Z,926.26
2019-02-24T01:34:58.127Z,926.24
2019-02-24T01:35:58.175Z,926.20
2019-02-24T01:36:58.233Z,926.17
2019-02-24T01:37:58.314Z,926.18
2019-02-24T01:38:58.326Z,926.19
2019-02-24T01:39:58.371Z,926.13
2019-02-24T01:40:58.412Z,926.08
2019-02-24T01:41:58.457Z,926.04
2019-02-24T01:42:58.512Z,926.00
2019-02-24T01:43:58.568Z,925.99
2019-02-24T01:44:58.630Z,925.94
2019-02-24T01:45:58.651Z,925.96
2019-02-24T01:46:58.755Z,925.94
2019-02-24T01:47:58.767Z,925.86
2019-02-24T01:48:58.816Z,925.85
2019-02-24T01:49:58.855Z,925.85
2019-02-24T01:50:58.947Z,925.85
2019-02-24T01:51:59.016Z,925.82
2019-02-24T01:52:58.998Z,925.81
2019-02-24T01:53:59.040Z,925.86
2019-02-24T01:54:59.060Z,925.84
2019-02-24T01:55:59.102Z,925.79
2019-02-24T01:56:59.213Z,925.80
2019-02-24T01:57:59.220Z,925.85
2019-02-24T01:58:59.293Z,925.83
2019-02-24T01:59:59.322Z,925.86
2019-02-24T02:00:59.370Z,925.86
2019-02-24T02:01:59.455Z,925.83
2019-02-24T02:02:59.454Z,925.83
2019-02-24T02:03:59.532Z,925.76
2019-02-24T02:04:59.587Z,925.75
2019-02-24T02:05:59.602Z,925.77
2019-02-24T02:06:59.683Z,925.76
2019-02-24T02:07:59.736Z,925.74
2019-02-24T02:08:59.750Z,925.74
2019-02-24T02:09:59.803Z,925.76
2019-02-24T02:10:59.850Z,925.76
2019-02-24T02:11:59.883Z,925.80
2019-02-24T02:12:59.912Z,925.80
2019-02-24T02:13:59.993Z,925.80
2019-02-24T02:15:00.004Z,925.79
2019-02-24T02:16:00.056Z,925.83
2019-02-24T02:17:00.125Z,925.83
2019-02-24T02:18:00.166Z,925.82
2019-02-24T02:19:00.211Z,925.81
2019-02-24T02:20:00.315Z,925.83
2019-02-24T02:21:00.320Z,925.78
2019-02-24T02:22:00.400Z,925.73
2019-02-24T02:23:00.443Z,925.67
2019-02-24T02:24:00.492Z,925.61
2019-02-24T02:25:00.491Z,925.63
2019-02-24T02:26:00.556Z,925.60
2019-02-24T02:27:00.594Z,925.62
2019-02-24T02:28:00.651Z,925.59
2019-02-24T02:29:00.669Z,925.56
2019-02-24T02:30:00.742Z,925.56
2019-02-24T02:31:00.819Z,925.53
2019-02-24T02:32:00.833Z,925.53
2019-02-24T02:33:00.869Z,925.53
2019-02-24T02:34:00.922Z,925.52
2019-02-24T02:35:01.033Z,925.54
2019-02-24T02:36:01.068Z,925.52
2019-02-24T02:37:01.072Z,925.52
2019-02-24T02:38:01.097Z,925.54
2019-02-24T02:39:01.159Z,925.51
2019-02-24T02:40:01.208Z,925.52
2019-02-24T02:41:01.299Z,925.46
2019-02-24T02:42:01.301Z,925.45
2019-02-24T02:43:01.351Z,925.45
2019-02-24T02:44:01.401Z,925.43
2019-02-24T02:45:01.449Z,925.42
2019-02-24T02:46:01.481Z,925.37
2019-02-24T02:47:01.535Z,925.30
2019-02-24T02:48:01.595Z,925.25
2019-02-24T02:49:01.647Z,925.26
2019-02-24T02:50:01.720Z,925.22
2019-02-24T02:51:01.770Z,925.19
2019-02-24T02:52:01.791Z,925.20
2019-02-24T02:53:01.827Z,925.15
2019-02-24T02:54:01.907Z,925.16
2019-02-24T02:55:01.910Z,925.17
2019-02-24T02:56:02.036Z,925.15
2019-02-24T02:57:02.061Z,925.17
2019-02-24T02:58:02.059Z,925.20
2019-02-24T02:59:02.155Z,925.24
2019-02-24T03:00:02.163Z,925.24
2019-02-24T03:01:02.255Z,925.22
2019-02-24T03:02:02.259Z,925.24
2019-02-24T03:03:02.286Z,925.24
2019-02-24T03:04:02.350Z,925.18
2019-02-24T03:05:02.398Z,925.21
2019-02-24T03:06:02.414Z,925.20
2019-02-24T03:07:02.480Z,925.18
2019-02-24T03:08:02.528Z,925.18
2019-02-24T03:09:02.572Z,925.12
2019-02-24T03:10:02.929Z,925.15
2019-02-24T03:11:02.670Z,925.11
2019-02-24T03:12:02.702Z,925.12
2019-02-24T03:13:02.765Z,925.12
2019-02-24T03:14:02.829Z,925.06
2019-02-24T03:15:02.862Z,925.09
2019-02-24T03:16:02.917Z,925.07
2019-02-24T03:17:02.957Z,925.05
2019-02-24T03:18:03.004Z,925.02
2019-02-24T03:19:03.027Z,925.03
2019-02-24T03:20:03.093Z,925.07
2019-02-24T03:21:03.132Z,925.06
2019-02-24T03:22:03.184Z,925.06
2019-02-24T03:23:03.333Z,925.06
2019-02-24T03:24:03.297Z,925.04
2019-02-24T03:25:03.340Z,925.02
2019-02-24T03:26:03.362Z,925.03
2019-02-24T03:27:03.430Z,925.04
2019-02-24T03:28:03.473Z,925.06
2019-02-24T03:29:04.347Z,925.08
2019-02-24T03:30:03.566Z,925.05
2019-02-24T03:31:03.612Z,925.04
2019-02-24T03:32:03.657Z,925.04
2019-02-24T03:33:03.728Z,925.04
2019-02-24T03:34:03.736Z,925.05
2019-02-24T03:35:03.803Z,925.05
2019-02-24T03:36:03.858Z,925.09
2019-02-24T03:37:03.909Z,925.10
2019-02-24T03:38:03.923Z,925.16
2019-02-24T03:39:04.004Z,925.16
2019-02-24T03:40:04.020Z,925.11
2019-02-24T03:41:04.088Z,925.13
2019-02-24T03:42:04.142Z,925.10
2019-02-24T03:43:04.194Z,925.11
2019-02-24T03:44:04.206Z,925.13
2019-02-24T03:45:04.269Z,925.11
2019-02-24T03:46:04.314Z,925.16
2019-02-24T03:47:04.406Z,925.12
2019-02-24T03:48:04.454Z,925.16
2019-02-24T03:49:04.460Z,925.15
2019-02-24T03:50:04.493Z,925.16
2019-02-24T03:51:04.571Z,925.21
2019-02-24T03:52:04.589Z,925.24
2019-02-24T03:53:04.637Z,925.24
2019-02-24T03:54:04.700Z,925.24
2019-02-24T03:55:04.724Z,925.24
2019-02-24T03:56:04.834Z,925.21
2019-02-24T03:57:04.841Z,925.23
2019-02-24T03:58:04.891Z,925.23
2019-02-24T03:59:14.649Z,925.21
2019-02-24T04:00:04.977Z,925.15
2019-02-24T04:01:05.015Z,925.12
2019-02-24T04:02:05.067Z,925.11
2019-02-24T04:03:05.116Z,925.06
2019-02-24T04:04:05.165Z,925.05
2019-02-24T04:05:05.408Z,925.01
2019-02-24T04:06:05.246Z,925.01
2019-02-24T04:07:05.339Z,924.97
2019-02-24T04:08:05.393Z,924.97
2019-02-24T04:09:05.396Z,924.94
2019-02-24T04:10:05.444Z,924.92
2019-02-24T04:11:05.495Z,924.92
2019-02-24T04:12:05.537Z,924.91
2019-02-24T04:13:05.588Z,924.89
2019-02-24T04:14:05.637Z,924.91
2019-02-24T04:15:05.689Z,924.88
2019-02-24T04:16:05.730Z,924.89
2019-02-24T04:17:05.770Z,924.90
2019-02-24T04:18:05.812Z,924.83
2019-02-24T04:19:05.876Z,924.83
2019-02-24T04:20:05.897Z,924.82
2019-02-24T04:21:05.958Z,924.79
2019-02-24T04:22:06.001Z,924.81
2019-02-24T04:23:06.056Z,924.78
2019-02-24T04:24:06.092Z,924.78
2019-02-24T04:25:06.183Z,924.76
2019-02-24T04:26:06.207Z,924.77
2019-02-24T04:27:06.289Z,924.78
2019-02-24T04:28:06.289Z,924.74
2019-02-24T04:29:06.338Z,924.73
2019-02-24T04:30:06.431Z,924.75
2019-02-24T04:31:06.471Z,924.76
2019-02-24T04:32:06.523Z,924.72
2019-02-24T04:33:06.525Z,924.68
2019-02-24T04:34:06.558Z,924.66
2019-02-24T04:35:06.620Z,924.61
2019-02-24T04:36:06.640Z,924.61
2019-02-24T04:37:06.748Z,924.56
2019-02-24T04:38:06.740Z,924.53
2019-02-24T04:39:06.859Z,924.54
2019-02-24T04:40:06.884Z,924.49
2019-02-24T04:41:06.896Z,924.40
2019-02-24T04:42:06.945Z,924.35
2019-02-24T04:43:06.988Z,924.33
2019-02-24T04:44:07.039Z,924.29
2019-02-24T04:45:07.065Z,924.32
2019-02-24T04:46:07.140Z,924.29
2019-02-24T04:47:07.162Z,924.28
2019-02-24T04:48:07.223Z,924.25
2019-02-24T04:49:07.248Z,924.23
2019-02-24T04:50:07.324Z,924.25
2019-02-24T04:51:07.370Z,924.18
2019-02-24T04:52:07.423Z,924.17
2019-02-24T04:53:07.470Z,924.18
2019-02-24T04:54:07.501Z,924.18
2019-02-24T04:55:07.652Z,924.18
2019-02-24T04:56:07.583Z,924.20
2019-02-24T04:57:07.650Z,924.25
2019-02-24T04:58:07.698Z,924.21
2019-02-24T04:59:08.731Z,924.22
2019-02-24T05:00:07.825Z,924.19
2019-02-24T05:01:07.845Z,924.17
2019-02-24T05:02:07.880Z,924.14
2019-02-24T05:03:07.918Z,924.09
2019-02-24T05:04:07.985Z,924.10
2019-02-24T05:05:08.016Z,924.04
2019-02-24T05:06:08.114Z,924.03
2019-02-24T05:07:08.111Z,923.98
2019-02-24T05:08:08.168Z,924.02
2019-02-24T05:09:08.210Z,923.99
2019-02-24T05:10:08.242Z,923.95
2019-02-24T05:11:08.313Z,923.96
2019-02-24T05:12:08.349Z,923.94
2019-02-24T05:13:08.396Z,923.94
2019-02-24T05:14:08.449Z,923.94
2019-02-24T05:15:08.477Z,923.90
2019-02-24T05:16:08.524Z,923.93
2019-02-24T05:17:08.584Z,923.93
2019-02-24T05:18:08.632Z,923.92
2019-02-24T05:19:08.678Z,923.94
2019-02-24T05:20:08.737Z,923.92
2019-02-24T05:21:08.766Z,923.89
2019-02-24T05:22:08.822Z,923.91
2019-02-24T05:23:08.862Z,923.90
2019-02-24T05:24:08.901Z,923.89
2019-02-24T05:25:08.945Z,923.92
2019-02-24T05:26:08.994Z,923.90
2019-02-24T05:27:09.035Z,923.88
2019-02-24T05:28:09.099Z,923.87
2019-02-24T05:29:09.151Z,923.92
2019-02-24T05:30:09.182Z,923.89
2019-02-24T05:31:09.248Z,923.88
2019-02-24T05:32:09.283Z,923.89
2019-02-24T05:33:09.394Z,923.88
2019-02-24T05:34:09.390Z,923.87
2019-02-24T05:35:09.410Z,923.87
2019-02-24T05:36:09.489Z,923.84
2019-02-24T05:37:09.544Z,923.86
2019-02-24T05:38:09.561Z,923.84
2019-02-24T05:39:09.604Z,923.86
2019-02-24T05:40:09.651Z,923.84
2019-02-24T05:41:09.697Z,923.82
2019-02-24T05:42:09.759Z,923.85
2019-02-24T05:43:09.834Z,923.86
2019-02-24T05:44:09.848Z,923.85
2019-02-24T05:45:09.911Z,923.85
2019-02-24T05:46:09.940Z,923.84
2019-02-24T05:47:09.996Z,923.83
2019-02-24T05:48:10.043Z,923.84
2019-02-24T05:49:10.086Z,923.81
2019-02-24T05:50:10.115Z,923.80
2019-02-24T05:51:10.170Z,923.77
2019-02-24T05:52:10.251Z,923.71
2019-02-24T05:53:10.262Z,923.71
2019-02-24T05:54:10.317Z,923.69
2019-02-24T05:55:10.361Z,923.68
2019-02-24T05:56:10.401Z,923.72
2019-02-24T05:57:10.461Z,923.67
2019-02-24T05:58:10.500Z,923.66
2019-02-24T05:59:10.546Z,923.64
2019-02-24T06:00:10.591Z,923.68
2019-02-24T06:01:10.662Z,923.61
2019-02-24T06:02:10.687Z,923.67
2019-02-24T06:03:10.744Z,923.67
2019-02-24T06:04:10.767Z,923.69
2019-02-24T06:05:10.855Z,923.64
2019-02-24T06:06:10.880Z,923.66
2019-02-24T06:07:10.964Z,923.66
2019-02-24T06:08:11.039Z,923.65
2019-02-24T06:09:11.006Z,923.60
2019-02-24T06:10:11.083Z,923.68
2019-02-24T06:11:11.093Z,923.64
2019-02-24T06:12:11.183Z,923.63
2019-02-24T06:13:11.215Z,923.64
2019-02-24T06:14:11.256Z,923.65
2019-02-24T06:15:11.309Z,923.67
2019-02-24T06:16:11.333Z,923.62
2019-02-24T06:17:11.397Z,923.67
2019-02-24T06:18:11.463Z,923.71
2019-02-24T06:19:11.468Z,923.69
2019-02-24T06:20:11.519Z,923.67
2019-02-24T06:21:11.580Z,923.70
2019-02-24T06:22:11.688Z,923.68
2019-02-24T06:23:11.712Z,923.68
2019-02-24T06:24:11.726Z,923.64
2019-02-24T06:25:11.791Z,923.62
2019-02-24T06:26:11.808Z,923.61
2019-02-24T06:27:11.880Z,923.62
2019-02-24T06:28:11.934Z,923.60
2019-02-24T06:29:11.943Z,923.61
2019-02-24T06:30:12.115Z,923.64
2019-02-24T06:31:12.062Z,923.59
2019-02-24T06:32:12.114Z,923.65
2019-02-24T06:33:12.147Z,923.64
2019-02-24T06:34:12.194Z,923.63
2019-02-24T06:35:12.266Z,923.61
2019-02-24T06:36:12.277Z,923.63
2019-02-24T06:37:12.342Z,923.65
2019-02-24T06:38:12.409Z,923.64
2019-02-24T06:39:12.428Z,923.66
2019-02-24T06:40:12.462Z,923.67
2019-02-24T06:41:12.569Z,923.67
2019-02-24T06:42:12.585Z,923.66
2019-02-24T06:43:12.608Z,923.66
2019-02-24T06:44:12.748Z,923.66
2019-02-24T06:45:12.704Z,923.62
2019-02-24T06:46:12.743Z,923.62
2019-02-24T06:47:12.802Z,923.62
2019-02-24T06:48:12.832Z,923.63
2019-02-24T06:49:12.926Z,923.62
2019-02-24T06:50:12.928Z,923.63
2019-02-24T06:51:13.025Z,923.66
2019-02-24T06:52:13.036Z,923.65
2019-02-24T06:53:13.081Z,923.63
2019-02-24T06:54:13.136Z,923.67
2019-02-24T06:55:13.178Z,923.63
2019-02-24T06:56:13.236Z,923.61
2019-02-24T06:57:13.270Z,923.62
2019-02-24T06:58:13.315Z,923.60
2019-02-24T06:59:13.364Z,923.57
2019-02-24T07:00:14.360Z,923.59
2019-02-24T07:01:13.474Z,923.59
2019-02-24T07:02:13.499Z,923.55
2019-02-24T07:03:13.551Z,923.57
2019-02-24T07:04:13.604Z,923.61
2019-02-24T07:05:13.643Z,923.65
2019-02-24T07:06:13.674Z,923.61
2019-02-24T07:07:13.770Z,923.62
2019-02-24T07:08:13.768Z,923.63
2019-02-24T07:09:13.803Z,923.63
2019-02-24T07:10:13.866Z,923.61
2019-02-24T07:11:13.948Z,923.58
2019-02-24T07:12:13.970Z,923.56
2019-02-24T07:13:14.004Z,923.57
2019-02-24T07:14:14.057Z,923.61
2019-02-24T07:15:14.083Z,923.63
2019-02-24T07:16:14.173Z,923.64
2019-02-24T07:17:14.194Z,923.67
2019-02-24T07:18:14.234Z,923.69
2019-02-24T07:19:14.306Z,923.73
2019-02-24T07:20:14.340Z,923.72
2019-02-24T07:21:14.393Z,923.73
2019-02-24T07:22:14.579Z,923.78
2019-02-24T07:23:14.520Z,923.77
2019-02-24T07:24:14.552Z,923.78
2019-02-24T07:25:14.625Z,923.80
2019-02-24T07:26:14.678Z,923.76
2019-02-24T07:27:14.656Z,923.82
2019-02-24T07:28:14.687Z,923.77
2019-02-24T07:29:14.795Z,923.80
2019-02-24T07:30:23.203Z,923.79
2019-02-24T07:31:14.870Z,923.78
2019-02-24T07:32:14.893Z,923.77
2019-02-24T07:33:14.984Z,923.79
2019-02-24T07:34:14.994Z,923.77
2019-02-24T07:35:15.042Z,923.81
2019-02-24T07:36:15.075Z,923.80
2019-02-24T07:37:15.134Z,923.76
2019-02-24T07:38:15.156Z,923.79
2019-02-24T07:39:15.259Z,923.77
2019-02-24T07:40:15.279Z,923.77
2019-02-24T07:41:15.332Z,923.76
2019-02-24T07:42:15.374Z,923.72
2019-02-24T07:43:15.444Z,923.75
2019-02-24T07:44:15.459Z,923.72
2019-02-24T07:45:15.549Z,923.73
2019-02-24T07:46:15.539Z,923.75
2019-02-24T07:47:15.598Z,923.75
2019-02-24T07:48:15.662Z,923.77
2019-02-24T07:49:15.703Z,923.76
2019-02-24T07:50:15.754Z,923.77
2019-02-24T07:51:15.771Z,923.75
2019-02-24T07:52:15.822Z,923.75
2019-02-24T07:53:15.889Z,923.71
2019-02-24T07:54:15.959Z,923.75
2019-02-24T07:55:15.969Z,923.69
2019-02-24T07:56:16.007Z,923.68
2019-02-24T07:57:16.077Z,923.68
2019-02-24T07:58:16.157Z,923.68
2019-02-24T07:59:16.159Z,923.66
2019-02-24T08:00:16.198Z,923.67
2019-02-24T08:01:16.266Z,923.62
2019-02-24T08:02:16.287Z,923.64
2019-02-24T08:03:16.331Z,923.62
2019-02-24T08:04:16.399Z,923.66
2019-02-24T08:05:16.441Z,923.60
2019-02-24T08:06:16.485Z,923.63
2019-02-24T08:07:16.514Z,923.64
2019-02-24T08:08:16.872Z,923.64
2019-02-24T08:09:16.644Z,923.57
2019-02-24T08:10:16.665Z,923.57
2019-02-24T08:11:16.715Z,923.58
2019-02-24T08:12:16.761Z,923.58
2019-02-24T08:13:16.794Z,923.61
2019-02-24T08:14:16.864Z,923.61
2019-02-24T08:15:16.913Z,923.65
2019-02-24T08:16:16.990Z,923.63
2019-02-24T08:17:17.002Z,923.60
2019-02-24T08:18:17.024Z,923.65
2019-02-24T08:19:17.124Z,923.65
2019-02-24T08:20:17.133Z,923.64
2019-02-24T08:21:17.173Z,923.67
2019-02-24T08:22:17.237Z,923.72
2019-02-24T08:23:17.265Z,923.70
2019-02-24T08:24:17.362Z,923.68
2019-02-24T08:25:17.376Z,923.70
2019-02-24T08:26:17.395Z,923.70
2019-02-24T08:27:17.548Z,923.77
2019-02-24T08:28:17.487Z,923.75
2019-02-24T08:29:17.587Z,923.75
2019-02-24T08:30:17.603Z,923.74
2019-02-24T08:31:17.647Z,923.78
2019-02-24T08:32:17.704Z,923.79
2019-02-24T08:33:17.748Z,923.79
2019-02-24T08:34:17.778Z,923.74
2019-02-24T08:35:17.829Z,923.78
2019-02-24T08:36:17.860Z,923.77
2019-02-24T08:37:17.890Z,923.78
2019-02-24T08:38:17.977Z,923.80
2019-02-24T08:39:18.022Z,923.80
2019-02-24T08:40:18.062Z,923.87
2019-02-24T08:41:18.115Z,923.87
2019-02-24T08:42:18.161Z,923.83
2019-02-24T08:43:18.186Z,923.84
2019-02-24T08:44:18.238Z,923.87
2019-02-24T08:45:18.290Z,923.89
2019-02-24T08:46:18.341Z,923.90
2019-02-24T08:47:18.397Z,923.91
2019-02-24T08:48:19.278Z,923.91
2019-02-24T08:49:18.479Z,923.89
2019-02-24T08:50:18.520Z,923.90
2019-02-24T08:51:18.575Z,923.88
2019-02-24T08:52:18.619Z,923.86
2019-02-24T08:53:18.659Z,923.89
2019-02-24T08:54:18.712Z,923.84
2019-02-24T08:55:18.768Z,923.89
2019-02-24T08:56:18.813Z,923.85
2019-02-24T08:57:18.836Z,923.86
2019-02-24T08:58:18.915Z,923.81
2019-02-24T08:59:18.982Z,923.85
2019-02-24T09:00:18.993Z,923.80
2019-02-24T09:01:19.059Z,923.82
2019-02-24T09:02:19.074Z,923.83
2019-02-24T09:03:19.126Z,923.83
2019-02-24T09:04:19.184Z,923.86
2019-02-24T09:05:19.224Z,923.86
2019-02-24T09:06:19.288Z,923.90
2019-02-24T09:07:19.304Z,923.92
2019-02-24T09:08:19.353Z,923.88
2019-02-24T09:09:19.413Z,923.91
2019-02-24T09:10:19.455Z,923.92
2019-02-24T09:11:19.493Z,923.87
2019-02-24T09:12:19.552Z,923.88
2019-02-24T09:13:19.574Z,923.88
2019-02-24T09:14:21.472Z,923.85
2019-02-24T09:15:19.683Z,923.85
2019-02-24T09:16:19.741Z,923.86
2019-02-24T09:17:19.823Z,923.92
2019-02-24T09:18:19.823Z,923.93
2019-02-24T09:19:19.880Z,923.95
2019-02-24T09:20:19.916Z,923.89
2019-02-24T09:21:19.963Z,923.90
2019-02-24T09:22:19.999Z,923.93
2019-02-24T09:23:20.072Z,923.95
2019-02-24T09:24:20.124Z,923.94
2019-02-24T09:25:20.156Z,923.96
2019-02-24T09:26:20.206Z,923.98
2019-02-24T09:27:20.283Z,923.97
2019-02-24T09:28:20.273Z,924.00
2019-02-24T09:29:20.387Z,923.98
2019-02-24T09:30:20.365Z,923.98
2019-02-24T09:31:20.434Z,923.99
2019-02-24T09:32:20.462Z,923.99
2019-02-24T09:33:20.524Z,924.04
2019-02-24T09:34:20.560Z,924.01
2019-02-24T09:35:20.653Z,924.00
2019-02-24T09:36:20.681Z,924.04
2019-02-24T09:37:20.714Z,924.04
2019-02-24T09:38:20.760Z,924.09
2019-02-24T09:39:20.803Z,924.10
2019-02-24T09:40:20.847Z,924.06
2019-02-24T09:41:20.891Z,924.11
2019-02-24T09:42:20.936Z,924.12
2019-02-24T09:43:20.996Z,924.11
2019-02-24T09:44:21.020Z,924.13
2019-02-24T09:45:21.093Z,924.12
2019-02-24T09:46:21.118Z,924.15
2019-02-24T09:47:21.169Z,924.18
2019-02-24T09:48:21.219Z,924.17
2019-02-24T09:49:21.288Z,924.20
2019-02-24T09:50:21.330Z,924.22
2019-02-24T09:51:21.370Z,924.23
2019-02-24T09:52:21.428Z,924.22
2019-02-24T09:53:21.495Z,924.25
2019-02-24T09:54:21.520Z,924.23
2019-02-24T09:55:21.560Z,924.29
2019-02-24T09:56:21.604Z,924.34
2019-02-24T09:57:21.639Z,924.33
2019-02-24T09:58:21.695Z,924.40
2019-02-24T09:59:21.750Z,924.45
2019-02-24T10:00:22.102Z,924.49
2019-02-24T10:01:21.818Z,924.47
2019-02-24T10:02:21.886Z,924.50
2019-02-24T10:03:21.939Z,924.52
2019-02-24T10:04:21.995Z,924.51
2019-02-24T10:05:22.042Z,924.55
2019-02-24T10:06:22.076Z,924.55
2019-02-24T10:07:22.117Z,924.60
2019-02-24T10:08:22.172Z,924.61
2019-02-24T10:09:22.211Z,924.66
2019-02-24T10:10:22.281Z,924.68
2019-02-24T10:11:22.294Z,924.68
2019-02-24T10:12:22.360Z,924.69
2019-02-24T10:13:22.436Z,924.73
2019-02-24T10:14:22.460Z,924.75
2019-02-24T10:15:22.493Z,924.73
2019-02-24T10:16:22.550Z,924.76
2019-02-24T10:17:22.655Z,924.74
2019-02-24T10:18:22.653Z,924.75
2019-02-24T10:19:22.708Z,924.75
2019-02-24T10:20:22.761Z,924.77
2019-02-24T10:21:22.790Z,924.80
2019-02-24T10:22:22.877Z,924.80
2019-02-24T10:23:22.909Z,924.82
2019-02-24T10:24:22.954Z,924.79
2019-02-24T10:25:23.006Z,924.81
2019-02-24T10:26:23.042Z,924.84
2019-02-24T10:27:23.114Z,924.85
2019-02-24T10:28:23.168Z,924.83
2019-02-24T10:29:23.257Z,924.89
2019-02-24T10:30:23.241Z,924.90
2019-02-24T10:31:23.332Z,924.88
2019-02-24T10:32:23.369Z,924.87
2019-02-24T10:33:23.418Z,924.90
2019-02-24T10:34:23.478Z,924.89
2019-02-24T10:35:23.531Z,924.90
2019-02-24T10:36:23.573Z,924.94
2019-02-24T10:37:23.637Z,924.96
2019-02-24T10:38:23.680Z,924.94
2019-02-24T10:39:29.692Z,924.94
2019-02-24T10:40:23.797Z,924.95
2019-02-24T10:41:23.843Z,924.99
2019-02-24T10:42:23.884Z,924.98
2019-02-24T10:43:23.993Z,925.00
2019-02-24T10:44:24.014Z,924.98
2019-02-24T10:45:24.083Z,925.06
2019-02-24T10:46:24.208Z,925.09
2019-02-24T10:47:24.180Z,925.11
2019-02-24T10:48:24.231Z,925.11
2019-02-24T10:49:24.288Z,925.15
2019-02-24T10:50:24.343Z,925.11
2019-02-24T10:51:25.436Z,925.14
2019-02-24T10:52:24.469Z,925.13
2019-02-24T10:53:24.528Z,925.15
2019-02-24T10:54:24.558Z,925.18
2019-02-24T10:55:24.604Z,925.21
2019-02-24T10:56:24.741Z,925.23
2019-02-24T10:57:24.751Z,925.25
2019-02-24T10:58:24.805Z,925.28
2019-02-24T10:59:24.842Z,925.29
2019-02-24T11:00:24.925Z,925.28
2019-02-24T11:01:29.677Z,925.35
2019-02-24T11:02:25.033Z,925.34
2019-02-24T11:03:25.062Z,925.28
2019-02-24T11:04:25.177Z,925.35
2019-02-24T11:05:25.182Z,925.39
2019-02-24T11:06:25.261Z,925.39
2019-02-24T11:07:25.304Z,925.39
2019-02-24T11:08:25.358Z,925.46
2019-02-24T11:09:25.395Z,925.43
2019-02-24T11:10:25.467Z,925.41
2019-02-24T11:11:25.513Z,925.43
2019-02-24T11:12:25.578Z,925.47
2019-02-24T11:13:25.651Z,925.51
2019-02-24T11:14:25.690Z,925.53
2019-02-24T11:15:25.765Z,925.49
2019-02-24T11:16:25.809Z,925.55
2019-02-24T11:17:25.877Z,925.54
2019-02-24T11:18:25.937Z,925.62
2019-02-24T11:19:26.007Z,925.60
2019-02-24T11:20:26.062Z,925.61
2019-02-24T11:21:26.095Z,925.66
2019-02-24T11:22:26.179Z,925.67
2019-02-24T11:23:26.230Z,925.69
2019-02-24T11:24:26.295Z,925.74
2019-02-24T11:25:26.361Z,925.69
2019-02-24T11:26:26.399Z,925.71
2019-02-24T11:27:26.451Z,925.74
2019-02-24T11:28:26.507Z,925.78
2019-02-24T11:29:26.584Z,925.81
2019-02-24T11:30:26.639Z,925.80
2019-02-24T11:31:26.676Z,925.80
2019-02-24T11:32:26.758Z,925.84
2019-02-24T11:33:26.837Z,925.85
2019-02-24T11:34:26.884Z,925.84
2019-02-24T11:35:26.936Z,925.86
2019-02-24T11:36:26.989Z,925.88
2019-02-24T11:37:27.128Z,925.90
2019-02-24T11:38:27.139Z,925.91
2019-02-24T11:39:27.179Z,925.89
2019-02-24T11:40:27.227Z,925.89
2019-02-24T11:41:27.297Z,925.91
2019-02-24T11:42:27.362Z,925.97
2019-02-24T11:43:27.437Z,925.98
2019-02-24T11:44:27.491Z,926.01
2019-02-24T11:45:27.532Z,926.04
2019-02-24T11:46:27.585Z,926.04
2019-02-24T11:47:27.644Z,926.06
2019-02-24T11:48:27.693Z,926.07
2019-02-24T11:49:27.771Z,926.07
2019-02-24T11:50:27.819Z,926.06
2019-02-24T11:51:27.889Z,926.08
2019-02-24T11:52:27.932Z,926.14
2019-02-24T11:53:27.980Z,926.12
2019-02-24T11:54:28.064Z,926.16
2019-02-24T11:55:28.108Z,926.21
2019-02-24T11:56:28.166Z,926.24
2019-02-24T11:57:28.228Z,926.27
2019-02-24T11:58:28.276Z,926.25
2019-02-24T11:59:28.346Z,926.26
2019-02-24T12:00:28.402Z,926.28
2019-02-24T12:01:28.450Z,926.32
2019-02-24T12:02:34.405Z,926.35
2019-02-24T12:03:28.558Z,926.37
2019-02-24T12:04:28.645Z,926.36
2019-02-24T12:05:28.731Z,926.41
2019-02-24T12:06:28.757Z,926.35
2019-02-24T12:07:28.804Z,926.42
2019-02-24T12:08:28.903Z,926.39
2019-02-24T12:09:28.915Z,926.36
2019-02-24T12:10:29.002Z,926.38
2019-02-24T12:11:29.054Z,926.39
2019-02-24T12:12:29.126Z,926.38
2019-02-24T12:13:29.175Z,926.39
2019-02-24T12:14:29.251Z,926.39
2019-02-24T12:15:29.301Z,926.41
2019-02-24T12:16:29.357Z,926.45
2019-02-24T12:17:29.421Z,926.46
2019-02-24T12:18:29.484Z,926.46
2019-02-24T12:19:29.543Z,926.48
2019-02-24T12:20:29.589Z,926.49
2019-02-24T12:21:29.656Z,926.53
2019-02-24T12:22:29.766Z,926.53
2019-02-24T12:23:29.770Z,926.55
2019-02-24T12:24:29.854Z,926.55
2019-02-24T12:25:29.899Z,926.57
2019-02-24T12:26:29.974Z,926.58
2019-02-24T12:27:30.021Z,926.57
2019-02-24T12:28:30.092Z,926.56
2019-02-24T12:29:30.136Z,926.63